createdAt,value
2018-03-07T00:01:43.536Z,29.57
2018-03-07T00:03:46.869Z,32.67
2018-03-07T00:05:50.252Z,29.57
2018-03-07T00:07:53.642Z,32.40
2018-03-07T00:09:57.011Z,28.70
2018-03-07T00:12:00.383Z,27.70
2018-03-07T00:14:04.492Z,31.20
2018-03-07T00:16:07.858Z,28.23
2018-03-07T00:18:11.194Z,28.47
2018-03-07T00:20:14.558Z,27.63
2018-03-07T00:22:17.906Z,27.83
2018-03-07T00:24:21.229Z,28.50
2018-03-07T00:26:24.580Z,36.97
2018-03-07T00:28:27.910Z,32.33
2018-03-07T00:30:31.228Z,26.97
2018-03-07T00:32:34.564Z,26.07
2018-03-07T00:34:37.905Z,33.40
2018-03-07T00:36:42.030Z,29.63
2018-03-07T00:38:45.393Z,29.23
2018-03-07T00:40:49.509Z,29.30
2018-03-07T00:42:52.837Z,28.93
2018-03-07T00:44:56.181Z,29.03
2018-03-07T00:46:59.547Z,29.10
2018-03-07T00:49:02.890Z,27.23
2018-03-07T00:51:06.996Z,27.00
2018-03-07T00:53:11.081Z,28.77
2018-03-07T00:55:14.404Z,26.80
2018-03-07T00:57:18.539Z,28.03
2018-03-07T00:59:21.874Z,26.57
2018-03-07T01:01:25.234Z,28.50
2018-03-07T01:03:28.567Z,29.90
2018-03-07T01:05:31.909Z,31.37
2018-03-07T01:07:35.247Z,28.40
2018-03-07T01:09:38.549Z,33.50
2018-03-07T01:11:42.684Z,26.07
2018-03-07T01:13:46.024Z,30.80
2018-03-07T01:15:49.361Z,29.27
2018-03-07T01:17:52.704Z,27.57
2018-03-07T01:19:56.039Z,31.13
2018-03-07T01:21:59.413Z,31.03
2018-03-07T01:24:03.522Z,30.87
2018-03-07T01:26:07.655Z,30.10
2018-03-07T01:28:10.981Z,30.10
2018-03-07T01:30:14.316Z,31.43
2018-03-07T01:32:17.687Z,32.37
2018-03-07T01:34:21.006Z,32.47
2018-03-07T01:36:24.368Z,34.53
2018-03-07T01:38:27.733Z,35.20
2018-03-07T01:40:31.075Z,32.73
2018-03-07T01:42:35.201Z,30.30
2018-03-07T01:44:38.526Z,35.00
2018-03-07T01:46:41.891Z,34.00
2018-03-07T01:48:45.211Z,34.80
2018-03-07T01:50:48.561Z,33.23
2018-03-07T01:52:52.339Z,33.60
2018-03-07T01:54:55.678Z,31.63
2018-03-07T01:56:59.802Z,33.10
2018-03-07T01:59:03.132Z,37.20
2018-03-07T02:01:07.220Z,30.87
2018-03-07T02:03:10.534Z,36.63
2018-03-07T02:05:13.855Z,38.73
2018-03-07T02:07:17.217Z,33.60
2018-03-07T02:09:21.303Z,32.57
2018-03-07T02:11:24.658Z,33.97
2018-03-07T02:13:27.980Z,35.17
2018-03-07T02:15:31.308Z,30.70
2018-03-07T02:17:35.430Z,33.00
2018-03-07T02:19:38.776Z,30.83
2018-03-07T02:21:42.927Z,31.40
2018-03-07T02:23:46.246Z,36.47
2018-03-07T02:25:49.564Z,29.70
2018-03-07T02:27:53.780Z,36.00
2018-03-07T02:29:57.126Z,28.90
2018-03-07T02:32:00.508Z,31.67
2018-03-07T02:34:03.845Z,32.83
2018-03-07T02:36:19.085Z,32.13
2018-03-07T02:38:22.462Z,31.20
2018-03-07T02:40:25.849Z,29.80
2018-03-07T02:42:30.078Z,29.03
2018-03-07T02:44:33.425Z,29.43
2018-03-07T02:46:37.560Z,34.47
2018-03-07T02:48:40.938Z,29.90
2018-03-07T02:50:44.275Z,26.67
2018-03-07T02:52:47.637Z,30.23
2018-03-07T02:54:51.000Z,29.83
2018-03-07T02:56:54.355Z,31.57
2018-03-07T02:58:57.686Z,34.97
2018-03-07T03:01:01.794Z,27.73
2018-03-07T03:03:05.933Z,27.00
2018-03-07T03:05:09.291Z,27.37
2018-03-07T03:07:13.439Z,30.23
2018-03-07T03:09:16.835Z,30.73
2018-03-07T03:11:20.211Z,34.50
2018-03-07T03:13:23.625Z,31.37
2018-03-07T03:15:27.344Z,38.23
2018-03-07T03:17:30.722Z,42.03
2018-03-07T03:19:34.084Z,37.77
2018-03-07T03:21:37.425Z,41.80
2018-03-07T03:23:40.764Z,40.57
2018-03-07T03:25:44.084Z,39.07
2018-03-07T03:27:47.444Z,44.50
2018-03-07T03:29:51.535Z,37.10
2018-03-07T03:31:54.886Z,36.43
2018-03-07T03:33:58.208Z,39.53
2018-03-07T03:36:01.519Z,36.10
2018-03-07T03:38:04.885Z,34.33
2018-03-07T03:40:08.214Z,38.53
2018-03-07T03:42:11.597Z,31.20
2018-03-07T03:44:15.704Z,36.30
2018-03-07T03:46:19.052Z,36.80
2018-03-07T03:48:22.440Z,38.93
2018-03-07T03:50:25.801Z,38.20
2018-03-07T03:52:29.151Z,34.33
2018-03-07T03:54:32.483Z,43.33
2018-03-07T03:56:35.808Z,37.03
2018-03-07T03:58:39.200Z,38.30
2018-03-07T04:00:42.526Z,47.67
2018-03-07T04:02:46.667Z,43.67
2018-03-07T04:04:50.004Z,47.97
2018-03-07T04:06:53.318Z,54.90
2018-03-07T04:08:56.678Z,51.90
2018-03-07T04:13:09.352Z,58.47
2018-03-07T04:15:13.433Z,51.60
2018-03-07T04:17:16.775Z,51.20
2018-03-07T04:19:20.098Z,46.93
2018-03-07T04:21:23.417Z,45.60
2018-03-07T04:23:27.602Z,42.60
2018-03-07T04:25:30.926Z,34.63
2018-03-07T04:27:34.298Z,38.50
2018-03-07T04:29:37.636Z,41.23
2018-03-07T04:31:40.974Z,43.57
2018-03-07T04:33:44.330Z,53.23
2018-03-07T04:35:47.677Z,41.87
2018-03-07T04:37:51.042Z,53.93
2018-03-07T04:39:54.393Z,50.77
2018-03-07T04:41:57.727Z,38.93
2018-03-07T04:44:01.070Z,41.40
2018-03-07T04:46:04.386Z,40.20
2018-03-07T04:48:07.730Z,38.27
2018-03-07T04:50:11.974Z,44.23
2018-03-07T04:52:15.347Z,40.10
2018-03-07T04:54:19.427Z,41.57
2018-03-07T04:56:22.747Z,36.17
2018-03-07T04:58:26.875Z,38.90
2018-03-07T05:00:30.192Z,39.10
2018-03-07T05:02:33.536Z,37.27
2018-03-07T05:04:36.873Z,34.83
2018-03-07T05:06:40.199Z,33.90
2018-03-07T05:08:43.550Z,36.97
2018-03-07T05:10:46.897Z,35.00
2018-03-07T05:12:50.268Z,30.70
2018-03-07T05:14:53.687Z,42.90
2018-03-07T05:16:57.009Z,36.20
2018-03-07T05:19:00.427Z,38.03
2018-03-07T05:21:03.765Z,41.40
2018-03-07T05:23:07.116Z,41.03
2018-03-07T05:25:10.450Z,40.70
2018-03-07T05:27:13.797Z,38.77
2018-03-07T05:29:17.233Z,37.10
2018-03-07T05:31:20.583Z,42.40
2018-03-07T05:33:24.729Z,42.50
2018-03-07T05:35:28.129Z,43.90
2018-03-07T05:37:31.473Z,45.40
2018-03-07T05:39:34.802Z,44.50
2018-03-07T05:41:38.899Z,50.57
2018-03-07T05:43:42.294Z,38.33
2018-03-07T05:45:46.401Z,41.63
2018-03-07T05:47:49.806Z,35.87
2018-03-07T05:49:53.881Z,43.80
2018-03-07T05:51:57.217Z,36.90
2018-03-07T05:54:00.560Z,43.57
2018-03-07T05:56:04.676Z,39.80
2018-03-07T05:58:08.784Z,45.50
2018-03-07T06:00:12.147Z,36.07
2018-03-07T06:02:15.766Z,40.53
2018-03-07T06:04:21.071Z,43.93
2018-03-07T06:06:24.418Z,39.03
2018-03-07T06:08:28.513Z,38.43
2018-03-07T06:10:31.892Z,42.07
2018-03-07T06:12:35.214Z,39.37
2018-03-07T06:14:39.315Z,39.70
2018-03-07T06:16:42.735Z,41.67
2018-03-07T06:18:46.333Z,42.57
2018-03-07T06:20:50.189Z,42.90
2018-03-07T06:22:53.704Z,40.80
2018-03-07T06:24:58.817Z,44.80
2018-03-07T06:27:03.057Z,42.13
2018-03-07T06:29:07.206Z,49.13
2018-03-07T06:31:10.538Z,38.40
2018-03-07T06:33:14.195Z,40.47
2018-03-07T06:35:18.258Z,37.37
2018-03-07T06:37:21.600Z,36.40
2018-03-07T06:39:25.690Z,39.93
2018-03-07T06:41:29.258Z,38.97
2018-03-07T06:43:32.574Z,39.63
2018-03-07T06:45:36.439Z,38.90
2018-03-07T06:47:41.003Z,40.30
2018-03-07T06:49:45.379Z,40.17
2018-03-07T06:51:48.990Z,33.93
2018-03-07T06:53:53.129Z,38.63
2018-03-07T06:55:56.633Z,38.97
2018-03-07T06:58:01.949Z,34.23
2018-03-07T07:00:05.689Z,33.30
2018-03-07T07:02:09.241Z,33.50
2018-03-07T07:04:13.788Z,33.03
2018-03-07T07:06:17.457Z,28.17
2018-03-07T07:08:20.791Z,25.10
2018-03-07T07:10:24.126Z,23.53
2018-03-07T07:12:28.222Z,19.33
2018-03-07T07:14:31.545Z,22.10
2018-03-07T07:16:34.865Z,15.13
2018-03-07T07:18:38.183Z,16.13
2018-03-07T07:20:41.528Z,15.17
2018-03-07T07:22:44.841Z,14.67
2018-03-07T07:24:48.158Z,16.83
2018-03-07T07:26:51.488Z,15.60
2018-03-07T07:28:54.834Z,15.13
2018-03-07T07:30:58.164Z,16.30
2018-03-07T07:33:01.504Z,19.73
2018-03-07T07:35:04.839Z,13.37
2018-03-07T07:37:08.917Z,12.63
2018-03-07T07:39:12.261Z,13.90
2018-03-07T07:41:15.602Z,12.70
2018-03-07T07:43:19.723Z,12.87
2018-03-07T07:45:23.069Z,13.70
2018-03-07T07:47:26.407Z,11.67
2018-03-07T07:49:29.740Z,11.13
2018-03-07T07:51:33.061Z,14.37
2018-03-07T07:53:36.422Z,12.10
2018-03-07T07:55:39.748Z,11.17
2018-03-07T07:57:43.112Z,11.67
2018-03-07T07:59:46.434Z,11.30
2018-03-07T08:01:49.770Z,10.67
2018-03-07T08:03:53.849Z,9.00
2018-03-07T08:05:57.246Z,11.70
2018-03-07T08:08:00.515Z,9.93
2018-03-07T08:10:03.827Z,9.30
2018-03-07T08:12:07.945Z,11.33
2018-03-07T08:14:12.046Z,6.90
2018-03-07T08:16:15.354Z,7.07
2018-03-07T08:18:18.718Z,6.90
2018-03-07T08:20:22.033Z,6.63
2018-03-07T08:22:26.129Z,9.10
2018-03-07T08:24:29.455Z,8.30
2018-03-07T08:26:32.764Z,8.93
2018-03-07T08:28:36.107Z,7.53
2018-03-07T08:30:40.191Z,5.13
2018-03-07T08:32:43.508Z,9.10
2018-03-07T08:34:47.582Z,6.23
2018-03-07T08:36:50.928Z,5.83
2018-03-07T08:38:54.282Z,8.20
2018-03-07T08:40:57.581Z,7.47
2018-03-07T08:43:00.897Z,9.43
2018-03-07T08:45:04.989Z,5.30
2018-03-07T08:47:08.362Z,4.67
2018-03-07T08:49:11.679Z,5.33
2018-03-07T08:51:15.765Z,4.97
2018-03-07T08:53:19.078Z,5.53
2018-03-07T08:55:23.170Z,4.93
2018-03-07T08:57:26.532Z,6.67
2018-03-07T08:59:29.850Z,6.03
2018-03-07T09:01:33.155Z,5.30
2018-03-07T09:03:37.261Z,4.60
2018-03-07T09:05:41.338Z,13.87
2018-03-07T09:07:44.658Z,5.10
2018-03-07T09:09:48.772Z,7.20
2018-03-07T09:11:52.855Z,6.03
2018-03-07T09:13:56.186Z,4.07
2018-03-07T09:15:59.499Z,5.93
2018-03-07T09:18:02.831Z,5.17
2018-03-07T09:20:06.145Z,3.60
2018-03-07T09:22:09.475Z,3.10
2018-03-07T09:24:12.937Z,6.20
2018-03-07T09:26:17.005Z,7.20
2018-03-07T09:28:20.307Z,4.20
2018-03-07T09:30:23.618Z,3.43
2018-03-07T09:32:27.700Z,6.50
2018-03-07T09:34:31.028Z,4.30
2018-03-07T09:36:35.103Z,4.93
2018-03-07T09:38:38.423Z,4.67
2018-03-07T09:40:41.764Z,3.73
2018-03-07T09:42:45.068Z,6.07
2018-03-07T09:44:48.385Z,3.67
2018-03-07T09:46:52.484Z,6.07
2018-03-07T09:48:55.833Z,5.33
2018-03-07T09:50:59.139Z,5.37
2018-03-07T09:53:02.439Z,4.03
2018-03-07T09:55:05.780Z,7.43
2018-03-07T09:57:09.997Z,2.80
2018-03-07T09:59:13.313Z,7.40
2018-03-07T10:01:16.620Z,2.53
2018-03-07T10:03:19.933Z,5.87
2018-03-07T10:05:23.277Z,4.83
2018-03-07T10:07:26.580Z,3.30
2018-03-07T10:09:29.886Z,3.10
2018-03-07T10:11:33.203Z,2.30
2018-03-07T10:13:36.521Z,4.40
2018-03-07T10:15:40.487Z,4.07
2018-03-07T10:17:43.806Z,2.10
2018-03-07T10:19:47.893Z,8.33
2018-03-07T10:21:51.937Z,2.07
2018-03-07T10:23:55.315Z,3.50
2018-03-07T10:25:58.694Z,3.60
2018-03-07T10:28:02.118Z,4.73
2018-03-07T10:30:05.442Z,3.43
2018-03-07T10:32:08.805Z,4.00
2018-03-07T10:34:12.943Z,3.07
2018-03-07T10:36:17.056Z,3.10
2018-03-07T10:38:20.375Z,2.60
2018-03-07T10:40:24.503Z,5.27
2018-03-07T10:42:28.590Z,3.10
2018-03-07T10:44:31.902Z,4.60
2018-03-07T10:46:35.220Z,2.80
2018-03-07T10:48:38.592Z,2.90
2018-03-07T10:50:41.903Z,4.47
2018-03-07T10:52:45.230Z,2.30
2018-03-07T10:54:48.996Z,6.33
2018-03-07T10:56:52.310Z,3.40
2018-03-07T10:58:55.663Z,3.40
2018-03-07T11:00:58.991Z,2.67
2018-03-07T11:03:02.315Z,2.60
2018-03-07T11:05:05.631Z,4.23
2018-03-07T11:07:08.945Z,4.00
2018-03-07T11:09:12.278Z,2.67
2018-03-07T11:11:15.607Z,2.60
2018-03-07T11:13:18.920Z,4.23
2018-03-07T11:15:22.232Z,2.43
2018-03-07T11:17:26.195Z,2.40
2018-03-07T11:19:29.514Z,2.40
2018-03-07T11:21:32.834Z,3.73
2018-03-07T11:23:36.197Z,2.93
2018-03-07T11:25:39.536Z,1.57
2018-03-07T11:27:43.602Z,1.77
2018-03-07T11:29:47.564Z,2.67
2018-03-07T11:31:51.361Z,4.43
2018-03-07T11:33:54.779Z,2.20
2018-03-07T11:35:58.073Z,3.00
2018-03-07T11:38:01.399Z,4.30
2018-03-07T11:40:04.725Z,1.73
2018-03-07T11:42:08.810Z,4.43
2018-03-07T11:44:12.919Z,2.07
2018-03-07T11:46:17.007Z,5.17
2018-03-07T11:48:20.323Z,2.47
2018-03-07T11:50:24.408Z,2.13
2018-03-07T11:52:28.618Z,4.43
2018-03-07T11:54:31.938Z,3.43
2018-03-07T11:56:36.038Z,2.50
2018-03-07T11:58:40.334Z,3.80
2018-03-07T12:00:43.642Z,3.60
2018-03-07T12:02:46.949Z,3.87
2018-03-07T12:04:50.281Z,3.53
2018-03-07T12:06:54.448Z,2.90
2018-03-07T12:08:57.750Z,5.53
2018-03-07T12:11:01.077Z,5.97
2018-03-07T12:13:04.399Z,2.33
2018-03-07T12:15:07.715Z,4.00
2018-03-07T12:17:11.792Z,2.20
2018-03-07T12:19:15.088Z,3.03
2018-03-07T12:21:18.483Z,5.30
2018-03-07T12:23:21.819Z,3.57
2018-03-07T12:25:25.141Z,4.17
2018-03-07T12:27:28.458Z,6.90
2018-03-07T12:29:32.564Z,6.53
2018-03-07T12:31:36.840Z,4.43
2018-03-07T12:33:40.241Z,6.73
2018-03-07T12:35:43.568Z,7.93
2018-03-07T12:37:47.661Z,3.70
2018-03-07T12:39:50.987Z,3.50
2018-03-07T12:41:55.090Z,2.20
2018-03-07T12:44:00.024Z,1.73
2018-03-07T12:46:03.344Z,2.07
2018-03-07T12:48:06.661Z,3.10
2018-03-07T12:50:09.980Z,2.73
2018-03-07T12:52:13.731Z,1.97
2018-03-07T12:54:17.076Z,2.30
2018-03-07T12:56:20.415Z,2.50
2018-03-07T12:58:23.720Z,3.03
2018-03-07T13:00:27.060Z,4.50
2018-03-07T13:02:30.375Z,2.40
2018-03-07T13:04:33.721Z,2.80
2018-03-07T13:06:38.595Z,2.50
2018-03-07T13:08:41.924Z,1.83
2018-03-07T13:10:46.147Z,2.20
2018-03-07T13:12:49.525Z,2.83
2018-03-07T13:14:52.838Z,6.33
2018-03-07T13:16:56.203Z,5.07
2018-03-07T13:18:59.661Z,4.87
2018-03-07T13:21:02.969Z,4.40
2018-03-07T13:23:06.294Z,1.80
2018-03-07T13:25:10.412Z,4.50
2018-03-07T13:27:14.497Z,2.37
2018-03-07T13:29:17.801Z,5.17
2018-03-07T13:31:21.890Z,3.30
2018-03-07T13:33:25.203Z,3.53
2018-03-07T13:35:28.546Z,2.70
2018-03-07T13:37:31.853Z,2.03
2018-03-07T13:39:35.167Z,2.87
2018-03-07T13:41:38.502Z,2.20
2018-03-07T13:43:41.967Z,1.90
2018-03-07T13:45:45.277Z,3.50
2018-03-07T13:47:49.343Z,1.93
2018-03-07T13:49:52.654Z,3.83
2018-03-07T13:51:56.736Z,3.73
2018-03-07T13:54:00.064Z,6.33
2018-03-07T13:56:03.435Z,5.10
2018-03-07T13:58:07.800Z,4.00
2018-03-07T14:00:11.150Z,4.17
2018-03-07T14:02:16.015Z,2.10
2018-03-07T14:04:20.047Z,2.63
2018-03-07T14:06:23.377Z,3.50
2018-03-07T14:08:27.530Z,1.90
2018-03-07T14:10:30.873Z,3.10
2018-03-07T14:12:34.223Z,2.67
2018-03-07T14:14:37.561Z,4.47
2018-03-07T14:16:41.765Z,2.10
2018-03-07T14:18:45.086Z,3.70
2018-03-07T14:20:49.173Z,3.30
2018-03-07T14:22:52.482Z,2.23
2018-03-07T14:24:56.569Z,2.10
2018-03-07T14:26:59.886Z,2.70
2018-03-07T14:29:04.213Z,3.50
2018-03-07T14:31:07.544Z,4.43
2018-03-07T14:33:11.221Z,1.80
2018-03-07T14:35:14.542Z,5.50
2018-03-07T14:37:18.470Z,2.63
2018-03-07T14:39:22.593Z,3.27
2018-03-07T14:41:26.896Z,4.20
2018-03-07T14:43:31.774Z,2.40
2018-03-07T14:45:36.793Z,2.70
2018-03-07T14:47:40.197Z,4.20
2018-03-07T14:49:43.526Z,2.30
2018-03-07T14:51:47.769Z,2.80
2018-03-07T14:53:51.886Z,2.03
2018-03-07T14:55:55.189Z,5.83
2018-03-07T14:57:58.491Z,2.10
2018-03-07T15:00:01.844Z,4.00
2018-03-07T15:02:05.209Z,1.90
2018-03-07T15:04:09.361Z,2.17
2018-03-07T15:06:12.679Z,2.03
2018-03-07T15:08:15.998Z,1.73
2018-03-07T15:10:20.120Z,2.90
2018-03-07T15:12:25.499Z,2.00
2018-03-07T15:14:28.847Z,1.50
2018-03-07T15:16:33.805Z,1.93
2018-03-07T15:18:37.983Z,1.97
2018-03-07T15:20:42.298Z,2.20
2018-03-07T15:22:45.621Z,2.67
2018-03-07T15:24:49.745Z,2.60
2018-03-07T15:26:53.152Z,4.07
2018-03-07T15:28:58.704Z,2.50
2018-03-07T15:31:02.038Z,4.33
2018-03-07T15:33:06.253Z,3.53
2018-03-07T15:35:09.543Z,2.93
2018-03-07T15:37:13.647Z,3.37
2018-03-07T15:39:17.884Z,3.93
2018-03-07T15:41:21.350Z,7.43
2018-03-07T15:43:24.708Z,7.60
2018-03-07T15:45:28.408Z,8.17
2018-03-07T15:47:31.752Z,2.97
2018-03-07T15:49:35.134Z,4.20
2018-03-07T15:51:39.238Z,7.60
2018-03-07T15:53:43.323Z,6.80
2018-03-07T15:55:46.640Z,4.27
2018-03-07T15:57:50.726Z,3.03
2018-03-07T15:59:54.033Z,2.63
2018-03-07T16:01:57.651Z,3.50
2018-03-07T16:04:01.068Z,2.47
2018-03-07T16:06:04.388Z,2.33
2018-03-07T16:08:07.716Z,2.40
2018-03-07T16:10:12.702Z,2.33
2018-03-07T16:12:16.040Z,2.30
2018-03-07T16:14:20.126Z,2.70
2018-03-07T16:16:23.434Z,2.53
2018-03-07T16:18:27.501Z,4.13
2018-03-07T16:20:30.806Z,2.80
2018-03-07T16:22:34.131Z,3.00
2018-03-07T16:24:37.452Z,4.00
2018-03-07T16:26:40.803Z,2.60
2018-03-07T16:28:44.876Z,3.77
2018-03-07T16:30:49.518Z,3.10
2018-03-07T16:32:52.891Z,3.30
2018-03-07T16:34:56.198Z,5.13
2018-03-07T16:36:59.533Z,2.50
2018-03-07T16:39:03.862Z,6.63
2018-03-07T16:41:07.209Z,6.10
2018-03-07T16:43:11.339Z,5.00
2018-03-07T16:45:14.651Z,7.63
2018-03-07T16:47:17.956Z,4.57
2018-03-07T16:49:21.313Z,4.60
2018-03-07T16:51:24.634Z,2.90
2018-03-07T16:53:27.997Z,4.03
2018-03-07T16:55:31.305Z,2.67
2018-03-07T16:57:34.603Z,4.00
2018-03-07T16:59:37.964Z,6.43
2018-03-07T17:01:41.310Z,6.60
2018-03-07T17:03:45.262Z,3.10
2018-03-07T17:05:48.577Z,3.93
2018-03-07T17:07:52.298Z,2.63
2018-03-07T17:09:55.877Z,4.80
2018-03-07T17:11:59.209Z,3.93
2018-03-07T17:14:03.315Z,4.20
2018-03-07T17:16:07.414Z,3.30
2018-03-07T17:18:10.797Z,3.67
2018-03-07T17:20:14.162Z,2.83
2018-03-07T17:22:17.485Z,3.57
2018-03-07T17:24:20.794Z,5.00
2018-03-07T17:26:24.875Z,4.00
2018-03-07T17:28:28.205Z,2.90
2018-03-07T17:30:32.338Z,4.40
2018-03-07T17:32:35.639Z,8.50
2018-03-07T17:34:39.923Z,2.93
2018-03-07T17:36:43.207Z,3.20
2018-03-07T17:38:46.543Z,4.43
2018-03-07T17:40:49.920Z,4.03
2018-03-07T17:42:53.269Z,3.90
2018-03-07T17:44:56.579Z,4.83
2018-03-07T17:47:00.699Z,3.90
2018-03-07T17:49:04.011Z,4.73
2018-03-07T17:51:07.360Z,4.20
2018-03-07T17:53:11.442Z,3.40
2018-03-07T17:55:14.757Z,4.03
2018-03-07T17:57:18.877Z,7.57
2018-03-07T17:59:22.959Z,4.90
2018-03-07T18:01:27.055Z,3.90
2018-03-07T18:03:30.389Z,4.80
2018-03-07T18:05:33.695Z,4.77
2018-03-07T18:07:37.038Z,5.37
2018-03-07T18:09:40.371Z,6.20
2018-03-07T18:11:43.674Z,5.83
2018-03-07T18:13:46.980Z,5.60
2018-03-07T18:15:50.366Z,6.30
2018-03-07T18:17:53.699Z,6.00
2018-03-07T18:19:57.025Z,8.77
2018-03-07T18:22:00.342Z,7.07
2018-03-07T18:24:03.660Z,10.07
2018-03-07T18:26:06.983Z,8.17
2018-03-07T18:28:11.257Z,9.43
2018-03-07T18:30:15.226Z,6.97
2018-03-07T18:32:19.442Z,11.67
2018-03-07T18:34:22.908Z,7.30
2018-03-07T18:36:26.669Z,8.37
2018-03-07T18:38:30.114Z,8.10
2018-03-07T18:40:33.495Z,8.50
2018-03-07T18:42:36.978Z,8.73
2018-03-07T18:44:40.513Z,9.97
2018-03-07T18:46:44.153Z,11.30
2018-03-07T18:48:47.616Z,10.23
2018-03-07T18:50:50.984Z,8.37
2018-03-07T18:52:54.331Z,10.43
2018-03-07T18:54:57.721Z,9.80
2018-03-07T18:57:01.915Z,9.37
2018-03-07T18:59:05.321Z,12.80
2018-03-07T19:01:10.424Z,10.90
2018-03-07T19:03:13.895Z,12.50
2018-03-07T19:05:19.006Z,12.07
2018-03-07T19:07:22.371Z,12.27
2018-03-07T19:09:25.801Z,12.47
2018-03-07T19:11:31.834Z,14.33
2018-03-07T19:13:35.942Z,12.10
2018-03-07T19:15:39.475Z,14.30
2018-03-07T19:17:44.311Z,13.43
2018-03-07T19:19:49.559Z,12.43
2018-03-07T19:21:53.273Z,13.40
2018-03-07T19:23:56.720Z,14.43
2018-03-07T19:26:00.288Z,12.97
2018-03-07T19:28:03.801Z,10.87
2018-03-07T19:30:07.297Z,13.40
2018-03-07T19:32:11.458Z,12.67
2018-03-07T19:34:15.158Z,12.77
2018-03-07T19:36:18.560Z,14.47
2018-03-07T19:38:22.732Z,13.63
2018-03-07T19:40:27.804Z,16.07
2018-03-07T19:42:31.503Z,17.97
2018-03-07T19:44:35.186Z,15.33
2018-03-07T19:46:39.455Z,15.43
2018-03-07T19:48:43.924Z,13.50
2018-03-07T19:50:47.358Z,16.57
2018-03-07T19:52:51.240Z,16.40
2018-03-07T19:54:55.124Z,16.17
2018-03-07T19:56:58.894Z,15.60
2018-03-07T19:59:02.686Z,15.00
2018-03-07T20:01:07.091Z,13.13
2018-03-07T20:03:11.282Z,13.37
2018-03-07T20:05:14.884Z,12.53
2018-03-07T20:07:19.364Z,12.60
2018-03-07T20:09:22.847Z,10.63
2018-03-07T20:11:26.281Z,12.20
2018-03-07T20:13:29.831Z,9.33
2018-03-07T20:15:33.745Z,11.87
2018-03-07T20:17:37.206Z,11.90
2018-03-07T20:19:42.060Z,10.00
2018-03-07T20:21:45.601Z,9.77
2018-03-07T20:23:50.166Z,9.33
2018-03-07T20:25:53.542Z,11.87
2018-03-07T20:27:57.038Z,9.40
2018-03-07T20:30:01.372Z,10.17
2018-03-07T20:32:05.104Z,9.20
2018-03-07T20:34:10.095Z,14.30
2018-03-07T20:36:15.393Z,12.70
2018-03-07T20:38:19.038Z,10.83
2018-03-07T20:40:22.538Z,15.03
2018-03-07T20:42:26.337Z,15.80
2018-03-07T20:44:29.970Z,15.20
2018-03-07T20:46:33.313Z,11.30
2018-03-07T20:48:37.752Z,13.43
2018-03-07T20:50:41.225Z,13.40
2018-03-07T20:52:45.195Z,16.37
2018-03-07T20:54:49.788Z,13.87
2018-03-07T20:56:53.153Z,12.00
2018-03-07T20:58:56.952Z,9.77
2018-03-07T21:01:00.524Z,10.57
2018-03-07T21:03:04.084Z,10.90
2018-03-07T21:05:07.827Z,10.80
2018-03-07T21:07:11.171Z,9.13
2018-03-07T21:09:15.369Z,11.13
2018-03-07T21:11:18.833Z,11.77
2018-03-07T21:13:24.925Z,15.73
2018-03-07T21:15:29.486Z,11.40
2018-03-07T21:17:33.051Z,9.43
2018-03-07T21:19:37.413Z,8.60
2018-03-07T21:21:40.812Z,11.57
2018-03-07T21:23:44.847Z,13.33
2018-03-07T21:25:48.609Z,9.67
2018-03-07T21:27:52.190Z,10.60
2018-03-07T21:29:55.510Z,9.63
2018-03-07T21:31:59.031Z,12.10
2018-03-07T21:34:02.834Z,13.83
2018-03-07T21:36:06.305Z,12.23
2018-03-07T21:38:09.658Z,12.00
2018-03-07T21:40:14.704Z,12.30
2018-03-07T21:42:18.116Z,12.53
2018-03-07T21:44:21.457Z,11.23
2018-03-07T21:46:24.870Z,12.13
2018-03-07T21:48:30.170Z,12.63
2018-03-07T21:50:33.548Z,12.27
2018-03-07T21:52:37.521Z,11.50
2018-03-07T21:54:43.292Z,10.40
2018-03-07T21:56:46.660Z,11.67
2018-03-07T21:58:49.980Z,11.53
2018-03-07T22:00:56.208Z,15.23
2018-03-07T22:03:00.483Z,15.30
2018-03-07T22:05:03.889Z,13.23
2018-03-07T22:07:07.242Z,13.63
2018-03-07T22:09:10.758Z,16.60
2018-03-07T22:11:14.101Z,14.93
2018-03-07T22:13:18.212Z,11.40
2018-03-07T22:15:21.557Z,14.33
2018-03-07T22:17:24.914Z,15.90
2018-03-07T22:19:28.262Z,12.77
2018-03-07T22:21:31.567Z,11.53
2018-03-07T22:23:35.708Z,15.77
2018-03-07T22:25:40.625Z,15.67
2018-03-07T22:27:43.956Z,12.00
2018-03-07T22:29:47.310Z,10.27
2018-03-07T22:31:51.399Z,11.93
2018-03-07T22:33:55.488Z,11.33
2018-03-07T22:35:58.864Z,10.30
2018-03-07T22:38:02.429Z,12.07
2018-03-07T22:40:05.886Z,10.93
2018-03-07T22:42:09.225Z,12.23
2018-03-07T22:44:12.642Z,9.97
2018-03-07T22:46:16.023Z,11.67
2018-03-07T22:48:20.146Z,10.63
2018-03-07T22:50:23.509Z,13.80
2018-03-07T22:52:26.850Z,8.57
2018-03-07T22:54:30.939Z,11.53
2018-03-07T22:56:35.064Z,9.33
2018-03-07T22:58:39.393Z,11.00
2018-03-07T23:00:50.340Z,10.87
2018-03-07T23:02:53.774Z,10.27
2018-03-07T23:04:57.607Z,10.70
2018-03-07T23:07:01.003Z,10.60
2018-03-07T23:09:04.345Z,9.37
2018-03-07T23:11:07.695Z,8.40
2018-03-07T23:13:11.113Z,11.17
2018-03-07T23:15:15.212Z,12.10
2018-03-07T23:17:19.295Z,13.40
2018-03-07T23:19:22.818Z,9.10
2018-03-07T23:21:26.136Z,12.90
2018-03-07T23:23:30.533Z,14.10
2018-03-07T23:25:34.662Z,14.20
2018-03-07T23:27:37.973Z,12.33
2018-03-07T23:29:41.859Z,14.93
2018-03-07T23:31:45.189Z,12.63
2018-03-07T23:33:48.508Z,16.73
2018-03-07T23:35:51.893Z,15.73
2018-03-07T23:37:55.997Z,13.13
2018-03-07T23:40:00.829Z,14.87
2018-03-07T23:42:04.196Z,12.83
2018-03-07T23:44:07.536Z,15.20
2018-03-07T23:46:10.878Z,15.33
2018-03-07T23:48:17.910Z,15.07
2018-03-07T23:50:22.161Z,15.80
2018-03-07T23:52:25.554Z,12.17
2018-03-07T23:54:29.769Z,14.30
2018-03-07T23:56:34.132Z,13.07
2018-03-07T23:58:37.563Z,16.07
